createdAt,value
2023-03-18T03:59:10.625Z,20.48
2023-03-18T04:00:10.559Z,20.44
2023-03-18T04:01:10.572Z,20.44
2023-03-18T04:02:10.537Z,20.51
2023-03-18T04:03:10.574Z,20.56
2023-03-18T04:04:10.549Z,20.49
2023-03-18T04:05:10.515Z,20.58
2023-03-18T04:06:10.543Z,20.57
2023-03-18T04:07:10.500Z,20.61
2023-03-18T04:08:10.504Z,20.56
2023-03-18T04:09:10.486Z,20.53
2023-03-18T04:10:10.486Z,20.58
2023-03-18T04:11:10.488Z,20.60
2023-03-18T04:12:10.475Z,20.67
2023-03-18T04:13:10.487Z,20.63
2023-03-18T04:14:10.478Z,20.75
2023-03-18T04:15:10.488Z,20.68
2023-03-18T04:16:10.539Z,20.76
2023-03-18T04:17:10.444Z,20.76
2023-03-18T04:18:10.437Z,20.67
2023-03-18T04:19:10.468Z,20.76
2023-03-18T04:20:10.442Z,20.81
2023-03-18T04:21:10.434Z,20.81
2023-03-18T04:22:10.445Z,20.82
2023-03-18T04:23:10.421Z,20.82
2023-03-18T04:24:10.406Z,20.82
2023-03-18T04:25:10.443Z,20.85
2023-03-18T04:26:10.427Z,20.86
2023-03-18T04:27:10.422Z,20.90
2023-03-18T04:28:10.408Z,20.88
2023-03-18T04:29:10.393Z,20.88
2023-03-18T04:30:10.395Z,20.97
2023-03-18T04:31:10.532Z,20.88
2023-03-18T04:32:10.407Z,20.88
2023-03-18T04:33:10.504Z,20.97
2023-03-18T04:34:10.371Z,21.06
2023-03-18T04:35:10.377Z,20.94
2023-03-18T04:36:10.441Z,20.97
2023-03-18T04:37:10.360Z,21.04
2023-03-18T04:38:10.393Z,20.88
2023-03-18T04:39:10.351Z,21.06
2023-03-18T04:40:10.343Z,21.03
2023-03-18T04:41:10.364Z,21.03
2023-03-18T04:42:10.337Z,21.06
2023-03-18T04:43:10.332Z,21.13
2023-03-18T04:44:10.340Z,20.94
2023-03-18T04:45:10.368Z,21.12
2023-03-18T04:46:10.396Z,21.04
2023-03-18T04:47:10.345Z,21.09
2023-03-18T04:48:10.315Z,21.09
2023-03-18T04:49:10.307Z,21.04
2023-03-18T04:50:10.320Z,21.08
2023-03-18T04:51:10.354Z,21.08
2023-03-18T04:52:10.296Z,21.00
2023-03-18T04:53:10.286Z,21.11
2023-03-18T04:54:10.300Z,21.11
2023-03-18T04:55:10.296Z,21.13
2023-03-18T04:56:10.299Z,21.13
2023-03-18T04:57:10.312Z,21.15
2023-03-18T04:58:10.261Z,21.09
2023-03-18T04:59:10.262Z,21.19
2023-03-18T05:00:11.444Z,21.18
2023-03-18T05:01:10.327Z,21.13
2023-03-18T05:02:10.253Z,21.23
2023-03-18T05:03:10.260Z,21.27
2023-03-18T05:04:10.277Z,21.15
2023-03-18T05:05:10.264Z,21.22
2023-03-18T05:06:10.270Z,21.19
2023-03-18T05:07:10.242Z,21.18
2023-03-18T05:08:10.233Z,21.21
2023-03-18T05:09:10.219Z,21.28
2023-03-18T05:10:10.228Z,21.30
2023-03-18T05:11:10.219Z,21.22
2023-03-18T05:12:10.219Z,21.34
2023-03-18T05:13:10.225Z,21.23
2023-03-18T05:14:10.229Z,21.23
2023-03-18T05:15:11.958Z,21.25
2023-03-18T05:16:10.251Z,21.23
2023-03-18T05:17:10.240Z,21.25
2023-03-18T05:18:10.193Z,21.28
2023-03-18T05:19:10.242Z,21.25
2023-03-18T05:20:10.238Z,21.23
2023-03-18T05:21:10.291Z,21.21
2023-03-18T05:22:10.204Z,21.27
2023-03-18T05:23:10.188Z,21.30
2023-03-18T05:24:10.203Z,21.21
2023-03-18T05:25:10.190Z,21.25
2023-03-18T05:26:10.206Z,21.27
2023-03-18T05:27:10.195Z,21.27
2023-03-18T05:28:11.299Z,21.34
2023-03-18T05:29:10.169Z,21.33
2023-03-18T05:30:10.149Z,21.30
2023-03-18T05:31:10.163Z,21.33
2023-03-18T05:32:10.145Z,21.33
2023-03-18T05:33:10.266Z,21.23
2023-03-18T05:34:10.146Z,21.30
2023-03-18T05:35:10.158Z,21.34
2023-03-18T05:36:10.194Z,21.28
2023-03-18T05:37:10.147Z,21.33
2023-03-18T05:38:10.111Z,21.34
2023-03-18T05:39:10.131Z,21.36
2023-03-18T05:40:10.115Z,21.34
2023-03-18T05:41:10.118Z,21.33
2023-03-18T05:42:10.167Z,21.34
2023-03-18T05:43:10.095Z,21.33
2023-03-18T05:44:10.114Z,21.33
2023-03-18T05:45:10.116Z,21.37
2023-03-18T05:46:10.116Z,21.37
2023-03-18T05:47:10.119Z,21.34
2023-03-18T05:48:10.130Z,21.34
2023-03-18T05:49:10.080Z,21.31
2023-03-18T05:50:10.060Z,21.30
2023-03-18T05:51:10.093Z,21.37
2023-03-18T05:52:10.060Z,21.37
2023-03-18T05:53:10.409Z,21.37
2023-03-18T05:54:10.070Z,21.36
2023-03-18T05:55:10.071Z,21.34
2023-03-18T05:56:10.081Z,21.36
2023-03-18T05:57:10.038Z,21.40
2023-03-18T05:58:10.039Z,21.37
2023-03-18T05:59:10.069Z,21.36
2023-03-18T06:00:10.035Z,21.34
2023-03-18T06:01:10.053Z,21.37
2023-03-18T06:02:10.065Z,21.36
2023-03-18T06:03:10.047Z,21.36
2023-03-18T06:04:10.031Z,21.41
2023-03-18T06:05:10.037Z,21.36
2023-03-18T06:06:10.000Z,21.40
2023-03-18T06:07:10.742Z,21.36
2023-03-18T06:08:10.022Z,21.43
2023-03-18T06:09:10.012Z,21.40
2023-03-18T06:10:09.996Z,21.36
2023-03-18T06:11:09.981Z,21.41
2023-03-18T06:12:09.980Z,21.37
2023-03-18T06:13:09.995Z,21.37
2023-03-18T06:14:10.004Z,21.40
2023-03-18T06:15:09.971Z,21.51
2023-03-18T06:16:10.002Z,21.43
2023-03-18T06:17:09.966Z,21.36
2023-03-18T06:18:09.983Z,21.37
2023-03-18T06:19:09.972Z,21.38
2023-03-18T06:20:09.964Z,21.45
2023-03-18T06:21:09.938Z,21.43
2023-03-18T06:22:09.954Z,21.48
2023-03-18T06:23:09.986Z,21.46
2023-03-18T06:24:09.935Z,21.48
2023-03-18T06:25:09.937Z,21.53
2023-03-18T06:26:09.936Z,21.48
2023-03-18T06:27:09.920Z,21.52
2023-03-18T06:28:09.962Z,21.49
2023-03-18T06:29:09.913Z,21.52
2023-03-18T06:30:09.906Z,21.46
2023-03-18T06:31:10.061Z,21.51
2023-03-18T06:32:09.934Z,21.49
2023-03-18T06:33:10.156Z,21.45
2023-03-18T06:34:09.901Z,21.45
2023-03-18T06:35:09.892Z,21.48
2023-03-18T06:36:09.951Z,21.46
2023-03-18T06:37:09.925Z,21.52
2023-03-18T06:38:09.907Z,21.59
2023-03-18T06:39:09.902Z,21.61
2023-03-18T06:40:09.894Z,21.58
2023-03-18T06:41:09.867Z,21.58
2023-03-18T06:42:09.882Z,21.53
2023-03-18T06:43:09.861Z,21.53
2023-03-18T06:44:09.860Z,21.53
2023-03-18T06:45:09.857Z,21.55
2023-03-18T06:46:09.893Z,21.56
2023-03-18T06:47:09.860Z,21.58
2023-03-18T06:48:09.886Z,21.49
2023-03-18T06:49:09.869Z,21.62
2023-03-18T06:50:09.837Z,21.62
2023-03-18T06:51:09.829Z,21.61
2023-03-18T06:52:09.836Z,21.67
2023-03-18T06:53:09.846Z,21.68
2023-03-18T06:54:09.824Z,21.61
2023-03-18T06:55:09.841Z,21.64
2023-03-18T06:56:09.811Z,21.64
2023-03-18T06:57:09.807Z,21.62
2023-03-18T06:58:09.820Z,21.66
2023-03-18T07:01:42.867Z,21.66
2023-03-18T07:02:42.794Z,21.64
2023-03-18T07:03:42.795Z,21.68
2023-03-18T07:04:42.898Z,21.66
2023-03-18T07:05:42.804Z,21.70
2023-03-18T07:06:42.796Z,21.64
2023-03-18T07:07:42.763Z,21.68
2023-03-18T07:08:42.771Z,21.68
2023-03-18T07:09:42.788Z,21.68
2023-03-18T07:10:42.785Z,21.74
2023-03-18T07:11:42.771Z,21.64
2023-03-18T07:12:42.758Z,21.68
2023-03-18T07:13:42.796Z,21.66
2023-03-18T07:14:42.757Z,21.70
2023-03-18T07:15:42.871Z,21.74
2023-03-18T07:16:42.767Z,21.71
2023-03-18T07:17:42.742Z,21.74
2023-03-18T07:18:42.724Z,21.74
2023-03-18T07:19:42.829Z,21.71
2023-03-18T07:20:42.725Z,21.71
2023-03-18T07:21:42.760Z,21.71
2023-03-18T07:22:42.721Z,21.78
2023-03-18T07:23:42.754Z,21.74
2023-03-18T07:24:42.707Z,21.77
2023-03-18T07:25:42.738Z,21.76
2023-03-18T07:26:42.728Z,21.76
2023-03-18T07:27:42.747Z,21.77
2023-03-18T07:28:42.690Z,21.76
2023-03-18T07:29:42.704Z,21.76
2023-03-18T07:30:42.691Z,21.76
2023-03-18T07:31:42.712Z,21.76
2023-03-18T07:32:42.701Z,21.83
2023-03-18T07:33:42.668Z,21.86
2023-03-18T07:34:42.674Z,21.78
2023-03-18T07:35:42.716Z,21.82
2023-03-18T07:36:42.743Z,21.82
2023-03-18T07:37:42.691Z,21.86
2023-03-18T07:38:42.652Z,21.82
2023-03-18T07:39:42.650Z,21.80
2023-03-18T07:40:42.708Z,21.86
2023-03-18T07:41:42.660Z,21.90
2023-03-18T07:42:42.674Z,21.82
2023-03-18T07:43:42.632Z,21.92
2023-03-18T07:44:42.662Z,21.90
2023-03-18T07:45:42.650Z,21.96
2023-03-18T07:46:42.647Z,21.97
2023-03-18T07:47:42.622Z,21.92
2023-03-18T07:48:42.641Z,21.94
2023-03-18T07:49:42.618Z,21.93
2023-03-18T07:50:42.621Z,21.90
2023-03-18T07:51:42.817Z,22.02
2023-03-18T07:52:42.610Z,21.96
2023-03-18T07:53:42.608Z,22.09
2023-03-18T07:54:42.603Z,22.05
2023-03-18T07:55:42.637Z,22.05
2023-03-18T07:56:42.618Z,22.04
2023-03-18T07:57:42.589Z,22.05
2023-03-18T07:58:42.621Z,22.11
2023-03-18T07:59:42.584Z,22.09
2023-03-18T08:00:42.592Z,22.08
2023-03-18T08:01:42.588Z,22.20
2023-03-18T08:02:42.592Z,22.20
2023-03-18T08:03:42.587Z,22.18
2023-03-18T08:04:42.620Z,22.15
2023-03-18T08:05:42.568Z,22.24
2023-03-18T08:06:42.572Z,22.26
2023-03-18T08:07:42.557Z,22.23
2023-03-18T08:08:42.557Z,22.23
2023-03-18T08:09:42.554Z,22.20
2023-03-18T08:10:42.568Z,22.30
2023-03-18T08:11:42.568Z,22.30
2023-03-18T08:12:52.713Z,22.30
2023-03-18T08:13:42.561Z,22.31
2023-03-18T08:14:42.567Z,22.31
2023-03-18T08:15:42.530Z,22.33
2023-03-18T08:16:42.597Z,22.39
2023-03-18T08:17:42.521Z,22.34
2023-03-18T08:18:42.555Z,22.34
2023-03-18T08:19:42.514Z,22.36
2023-03-18T08:20:42.508Z,22.36
2023-03-18T08:21:42.511Z,22.45
2023-03-18T08:22:42.524Z,22.39
2023-03-18T08:23:42.529Z,22.38
2023-03-18T08:24:45.112Z,22.46
2023-03-18T08:25:42.512Z,22.42
2023-03-18T08:26:42.772Z,22.49
2023-03-18T08:27:42.512Z,22.46
2023-03-18T08:28:42.517Z,22.45
2023-03-18T08:29:42.483Z,22.42
2023-03-18T08:30:42.510Z,22.48
2023-03-18T08:31:42.507Z,22.44
2023-03-18T08:32:42.505Z,22.49
2023-03-18T08:33:42.491Z,22.57
2023-03-18T08:34:42.483Z,22.60
2023-03-18T08:35:42.517Z,22.64
2023-03-18T08:36:42.505Z,22.66
2023-03-18T08:37:42.470Z,22.57
2023-03-18T08:38:42.455Z,22.59
2023-03-18T08:39:42.488Z,22.64
2023-03-18T08:40:42.455Z,22.66
2023-03-18T08:41:44.800Z,22.71
2023-03-18T08:42:42.444Z,22.71
2023-03-18T08:43:42.460Z,22.73
2023-03-18T08:44:42.455Z,22.73
2023-03-18T08:45:42.511Z,22.85
2023-03-18T08:46:42.462Z,22.79
2023-03-18T08:47:42.435Z,22.85
2023-03-18T08:48:42.439Z,22.85
2023-03-18T08:49:42.451Z,22.84
2023-03-18T08:50:42.432Z,22.89
2023-03-18T08:51:42.421Z,22.92
2023-03-18T08:52:42.436Z,22.97
2023-03-18T08:53:42.430Z,22.97
2023-03-18T08:54:42.424Z,22.96
2023-03-18T08:55:42.432Z,23.00
2023-03-18T08:56:42.413Z,23.00
2023-03-18T09:01:47.990Z,23.12
2023-03-18T09:02:47.941Z,23.06
2023-03-18T09:03:48.068Z,23.14
2023-03-18T09:04:47.934Z,23.19
2023-03-18T09:05:47.942Z,23.18
2023-03-18T09:06:47.932Z,23.21
2023-03-18T09:07:47.931Z,23.25
2023-03-18T09:08:47.957Z,23.22
2023-03-18T09:09:47.958Z,23.35
2023-03-18T09:10:47.941Z,23.38
2023-03-18T09:11:47.967Z,23.38
2023-03-18T09:12:47.921Z,23.41
2023-03-18T09:13:47.929Z,23.45
2023-03-18T09:14:47.910Z,23.44
2023-03-18T09:15:47.940Z,23.42
2023-03-18T09:16:47.966Z,23.47
2023-03-18T09:18:00.382Z,23.60
2023-03-18T09:18:49.036Z,23.57
2023-03-18T09:19:47.922Z,23.66
2023-03-18T09:20:47.933Z,23.71
2023-03-18T09:21:47.905Z,23.72
2023-03-18T09:22:47.893Z,23.79
2023-03-18T09:23:47.904Z,23.85
2023-03-18T09:24:47.900Z,23.90
2023-03-18T09:25:47.901Z,23.93
2023-03-18T09:26:47.886Z,23.87
2023-03-18T09:27:47.896Z,23.93
2023-03-18T09:28:47.893Z,23.99
2023-03-18T09:29:47.883Z,23.93
2023-03-18T09:30:47.922Z,23.94
2023-03-18T09:31:47.892Z,24.00
2023-03-18T09:32:47.907Z,24.03
2023-03-18T09:33:47.939Z,24.08
2023-03-18T09:34:47.881Z,24.02
2023-03-18T09:35:47.912Z,24.07
2023-03-18T09:36:47.900Z,24.07
2023-03-18T09:37:47.878Z,24.12
2023-03-18T09:38:47.892Z,24.08
2023-03-18T09:40:47.868Z,24.08
2023-03-18T09:41:47.871Z,24.07
2023-03-18T09:42:47.870Z,24.09
2023-03-18T09:43:47.875Z,24.17
2023-03-18T09:44:47.865Z,24.18
2023-03-18T09:45:47.881Z,24.18
2023-03-18T09:46:48.023Z,24.14
2023-03-18T09:47:47.848Z,24.19
2023-03-18T09:48:47.861Z,24.14
2023-03-18T09:49:47.870Z,24.18
2023-03-18T09:50:47.877Z,24.15
2023-03-18T09:51:47.864Z,24.19
2023-03-18T09:52:47.842Z,24.19
2023-03-18T09:53:47.843Z,24.24
2023-03-18T09:54:47.855Z,24.22
2023-03-18T09:55:47.834Z,24.24
2023-03-18T09:56:47.842Z,24.26
2023-03-18T09:57:47.858Z,24.26
2023-03-18T09:58:47.829Z,24.29
2023-03-18T09:59:47.906Z,24.26
2023-03-18T10:00:47.858Z,24.30
2023-03-18T10:01:47.895Z,24.32
2023-03-18T10:13:29.752Z,24.49
2023-03-18T10:14:29.706Z,24.49
2023-03-18T10:15:29.855Z,24.52
2023-03-18T10:16:29.698Z,24.45
2023-03-18T10:17:29.704Z,24.46
2023-03-18T10:18:29.679Z,24.61
2023-03-18T10:19:29.681Z,24.59
2023-03-18T10:20:29.675Z,24.67
2023-03-18T10:21:29.675Z,24.74
2023-03-18T10:22:29.687Z,24.80
2023-03-18T10:23:29.667Z,24.85
2023-03-18T10:24:29.681Z,24.90
2023-03-18T10:25:29.744Z,24.92
2023-03-18T10:26:29.662Z,25.01
2023-03-18T10:27:29.706Z,25.09
2023-03-18T10:28:30.310Z,25.11
2023-03-18T10:29:29.684Z,25.23
2023-03-18T10:30:29.662Z,25.27
2023-03-18T10:31:29.784Z,25.33
2023-03-18T10:32:46.433Z,25.29
2023-03-18T10:33:29.745Z,25.34
2023-03-18T10:34:29.658Z,25.33
2023-03-18T10:35:29.681Z,25.30
2023-03-18T10:36:29.671Z,25.33
2023-03-18T10:37:29.660Z,25.33
2023-03-18T10:38:29.665Z,25.32
2023-03-18T10:39:29.690Z,25.39
2023-03-18T10:40:29.665Z,25.34
2023-03-18T10:41:29.668Z,25.33
2023-03-18T10:42:29.666Z,25.32
2023-03-18T10:43:29.652Z,25.33
2023-03-18T10:44:29.684Z,25.34
2023-03-18T10:45:29.714Z,25.39
2023-03-18T10:46:29.737Z,25.47
2023-03-18T10:47:29.737Z,25.37
2023-03-18T10:48:29.654Z,25.39
2023-03-18T10:49:29.667Z,25.41
2023-03-18T10:50:29.672Z,25.34
2023-03-18T10:51:29.652Z,25.38
2023-03-18T10:52:29.653Z,25.32
2023-03-18T10:53:29.692Z,25.42
2023-03-18T10:54:29.664Z,25.47
2023-03-18T10:55:29.672Z,25.47
2023-03-18T10:56:29.653Z,25.39
2023-03-18T10:57:29.669Z,25.42
2023-03-18T10:58:29.648Z,25.42
2023-03-18T10:59:29.646Z,25.45
2023-03-18T11:00:29.693Z,25.48
2023-03-18T11:01:29.735Z,25.45
2023-03-18T11:02:29.698Z,25.48
2023-03-18T11:03:29.643Z,25.49
2023-03-18T11:04:30.497Z,25.45
2023-03-18T11:05:29.742Z,25.41
2023-03-18T11:06:31.463Z,25.49
2023-03-18T11:07:29.650Z,25.47
2023-03-18T11:08:29.637Z,25.45
2023-03-18T11:09:29.641Z,25.52
2023-03-18T11:10:29.663Z,25.51
2023-03-18T11:11:29.644Z,25.44
2023-03-18T11:12:29.647Z,25.57
2023-03-18T11:13:29.645Z,25.57
2023-03-18T11:14:29.638Z,25.56
2023-03-18T11:15:29.641Z,25.59
2023-03-18T11:16:29.748Z,25.62
2023-03-18T11:17:29.659Z,25.67
2023-03-18T11:18:29.640Z,25.76
2023-03-18T11:19:29.701Z,25.71
2023-03-18T11:20:29.657Z,25.76
2023-03-18T11:21:29.705Z,25.93
2023-03-18T11:22:29.648Z,25.86
2023-03-18T11:23:29.687Z,25.93
2023-03-18T11:24:29.770Z,26.12
2023-03-18T11:25:29.643Z,26.07
2023-03-18T11:26:29.664Z,26.27
2023-03-18T11:27:29.671Z,26.30
2023-03-18T11:28:29.637Z,26.41
2023-03-18T11:29:29.656Z,26.42
2023-03-18T11:30:36.840Z,26.47
2023-03-18T11:31:29.741Z,26.47
2023-03-18T11:32:29.765Z,26.47
2023-03-18T11:33:29.650Z,26.50
2023-03-18T11:34:29.659Z,26.57
2023-03-18T11:35:29.658Z,26.56
2023-03-18T11:36:29.655Z,26.59
2023-03-18T11:37:29.663Z,26.60
2023-03-18T11:38:29.666Z,26.71
2023-03-18T11:39:29.689Z,26.78
2023-03-18T11:40:29.749Z,26.86
2023-03-18T11:41:29.697Z,26.97
2023-03-18T11:42:29.645Z,26.94
2023-03-18T11:43:29.661Z,27.00
2023-03-18T11:44:29.680Z,27.05
2023-03-18T11:45:29.704Z,27.15
2023-03-18T11:46:29.653Z,27.27
2023-03-18T11:47:29.658Z,27.28
2023-03-18T11:48:29.653Z,27.42
2023-03-18T11:49:29.713Z,27.46
2023-03-18T11:50:29.753Z,27.51
2023-03-18T11:51:29.657Z,27.48
2023-03-18T11:52:29.652Z,27.46
2023-03-18T11:53:29.665Z,27.65
2023-03-18T11:55:29.716Z,27.72
2023-03-18T11:56:29.677Z,27.75
2023-03-18T11:57:29.696Z,27.74
2023-03-18T11:58:29.718Z,27.69
2023-03-18T11:59:29.703Z,27.62
2023-03-18T12:00:29.666Z,27.59
2023-03-18T12:01:31.827Z,27.57
2023-03-18T12:02:29.700Z,27.51
2023-03-18T12:03:29.689Z,27.48
2023-03-18T12:04:29.815Z,27.43
2023-03-18T12:05:29.728Z,27.31
2023-03-18T12:06:29.686Z,27.37
2023-03-18T12:07:29.675Z,27.18
2023-03-18T12:08:29.684Z,27.24
2023-03-18T12:09:29.680Z,27.09
2023-03-18T12:10:29.747Z,27.09
2023-03-18T12:11:29.685Z,27.23
2023-03-18T12:12:29.686Z,27.26
2023-03-18T12:13:29.707Z,27.31
2023-03-18T12:14:29.711Z,27.30
2023-03-18T12:15:29.826Z,27.31
2023-03-18T12:16:29.763Z,27.42
2023-03-18T12:17:29.781Z,27.38
2023-03-18T12:18:29.711Z,27.49
2023-03-18T12:19:29.715Z,27.53
2023-03-18T12:20:29.709Z,27.48
2023-03-18T12:21:29.726Z,27.62
2023-03-18T12:22:29.710Z,27.72
2023-03-18T12:23:29.693Z,27.86
2023-03-18T12:24:29.696Z,28.03
2023-03-18T12:25:29.724Z,28.17
2023-03-18T12:26:29.719Z,28.30
2023-03-18T12:27:29.700Z,28.43
2023-03-18T12:28:29.712Z,28.57
2023-03-18T12:29:29.702Z,28.55
2023-03-18T12:30:29.732Z,28.70
2023-03-18T12:31:29.851Z,28.75
2023-03-18T12:32:29.816Z,28.79
2023-03-18T12:33:29.726Z,28.92
2023-03-18T12:34:29.728Z,28.95
2023-03-18T12:35:29.758Z,29.06
2023-03-18T12:36:29.737Z,29.17
2023-03-18T12:37:29.770Z,29.26
2023-03-18T12:38:29.730Z,29.26
2023-03-18T12:39:31.116Z,29.35
2023-03-18T12:40:29.743Z,29.48
2023-03-18T12:41:29.744Z,29.72
2023-03-18T12:42:29.769Z,29.79
2023-03-18T12:43:29.748Z,29.91
2023-03-18T12:44:29.750Z,30.03
2023-03-18T12:45:29.758Z,30.26
2023-03-18T12:46:29.774Z,30.39
2023-03-18T12:47:29.768Z,30.51
2023-03-18T12:48:43.178Z,30.66
2023-03-18T12:49:29.765Z,30.64
2023-03-18T12:50:29.793Z,30.82
2023-03-18T12:51:29.781Z,30.88
2023-03-18T12:52:29.779Z,30.84
2023-03-18T12:53:29.896Z,30.89
2023-03-18T12:54:29.794Z,31.00
2023-03-18T12:55:29.780Z,31.18
2023-03-18T12:56:29.787Z,31.31
2023-03-18T12:57:29.786Z,31.50
2023-03-18T12:58:29.813Z,31.52
2023-03-18T12:59:29.799Z,31.65
2023-03-18T13:00:29.869Z,31.74
2023-03-18T13:01:29.935Z,31.90
2023-03-18T13:02:29.840Z,31.65
2023-03-18T13:03:29.843Z,31.45
2023-03-18T13:04:29.820Z,31.33
2023-03-18T13:05:29.830Z,31.30
2023-03-18T13:06:29.837Z,31.34
2023-03-18T13:07:29.835Z,31.26
2023-03-18T13:08:29.855Z,31.33
2023-03-18T13:09:29.859Z,31.55
2023-03-18T13:10:29.861Z,31.58
2023-03-18T13:11:29.844Z,31.33
2023-03-18T13:12:29.871Z,31.23
2023-03-18T13:13:29.855Z,31.34
2023-03-18T13:14:29.860Z,31.47
2023-03-18T13:15:29.849Z,31.62
2023-03-18T13:16:29.889Z,31.75
2023-03-18T13:17:30.077Z,31.74
2023-03-18T13:18:29.865Z,31.98
2023-03-18T13:19:29.870Z,32.00
2023-03-18T13:20:29.888Z,32.00
2023-03-18T13:21:29.886Z,32.24
2023-03-18T13:22:29.898Z,32.23
2023-03-18T13:23:29.926Z,32.34
2023-03-18T13:24:29.896Z,32.53
2023-03-18T13:25:29.910Z,32.62
2023-03-18T13:26:29.898Z,32.68
2023-03-18T13:27:29.926Z,32.74
2023-03-18T13:28:29.909Z,32.71
2023-03-18T13:29:29.931Z,32.75
2023-03-18T13:30:29.925Z,32.80
2023-03-18T13:31:29.926Z,32.84
2023-03-18T13:32:30.058Z,32.91
2023-03-18T13:33:29.949Z,33.08
2023-03-18T13:34:29.988Z,33.08
2023-03-18T13:35:29.999Z,33.09
2023-03-18T13:36:29.944Z,33.20
2023-03-18T13:37:29.956Z,33.31
2023-03-18T13:38:29.993Z,33.40
2023-03-18T13:39:29.965Z,33.39
2023-03-18T13:40:29.995Z,33.31
2023-03-18T13:41:29.989Z,33.41
2023-03-18T13:42:30.016Z,33.29
2023-03-18T13:43:30.000Z,33.50
2023-03-18T13:44:30.010Z,33.47
2023-03-18T13:45:30.038Z,33.36
2023-03-18T13:46:30.077Z,33.44
2023-03-18T13:47:30.011Z,33.55
2023-03-18T13:48:30.012Z,33.66
2023-03-18T13:49:30.032Z,33.71
2023-03-18T13:50:30.024Z,33.74
2023-03-18T13:51:30.031Z,33.83
2023-03-18T13:52:30.039Z,33.83
2023-03-18T13:53:30.047Z,33.74
2023-03-18T13:54:30.055Z,33.71
2023-03-18T13:55:30.171Z,33.56
2023-03-18T13:56:30.059Z,33.58
2023-03-18T13:57:30.136Z,33.59
2023-03-18T13:58:30.067Z,33.61
2023-03-18T13:59:30.094Z,33.63
2023-03-18T14:00:30.099Z,33.39
2023-03-18T14:01:30.146Z,33.37
2023-03-18T14:02:30.123Z,33.32
2023-03-18T14:03:30.297Z,33.36
2023-03-18T14:04:30.107Z,33.34
2023-03-18T14:05:30.126Z,33.23
2023-03-18T14:06:30.119Z,33.02
2023-03-18T14:07:30.122Z,32.93
2023-03-18T14:08:30.149Z,32.79
2023-03-18T14:09:30.143Z,32.89
2023-03-18T14:10:30.145Z,32.96
2023-03-18T14:11:30.146Z,33.01
2023-03-18T14:12:30.158Z,33.18
2023-03-18T14:13:30.214Z,33.29
2023-03-18T14:14:30.153Z,33.36
2023-03-18T14:15:30.185Z,33.37
2023-03-18T14:16:30.224Z,33.40
2023-03-18T14:17:30.212Z,33.12
2023-03-18T14:18:30.175Z,32.94
2023-03-18T14:19:30.185Z,32.98
2023-03-18T14:20:30.185Z,33.05
2023-03-18T14:21:30.206Z,33.05
2023-03-18T14:22:30.281Z,32.94
2023-03-18T14:23:30.201Z,32.98
2023-03-18T14:24:30.220Z,33.02
2023-03-18T14:25:30.208Z,33.11
2023-03-18T14:26:30.237Z,33.13
2023-03-18T14:27:30.213Z,33.23
2023-03-18T14:28:30.225Z,33.29
2023-03-18T14:29:30.264Z,33.18
2023-03-18T14:30:30.242Z,33.20
2023-03-18T14:31:30.319Z,33.16
2023-03-18T14:32:30.263Z,33.02
2023-03-18T14:33:30.248Z,32.86
2023-03-18T14:34:30.338Z,32.80
2023-03-18T14:35:30.425Z,32.87
2023-03-18T14:36:30.279Z,32.91
2023-03-18T14:37:30.282Z,32.89
2023-03-18T14:38:30.295Z,33.02
2023-03-18T14:39:30.294Z,33.08
2023-03-18T14:40:30.295Z,33.02
2023-03-18T14:41:30.367Z,32.94
2023-03-18T14:42:30.329Z,32.80
2023-03-18T14:43:30.317Z,32.75
2023-03-18T14:44:30.305Z,32.75
2023-03-18T14:45:30.488Z,32.74
2023-03-18T14:46:30.356Z,32.67
2023-03-18T14:47:38.659Z,32.68
2023-03-18T14:48:30.324Z,32.75
2023-03-18T14:49:30.341Z,32.75
2023-03-18T14:50:30.780Z,32.80
2023-03-18T14:51:30.365Z,32.81
2023-03-18T14:52:30.359Z,32.87
2023-03-18T14:53:30.345Z,32.81
2023-03-18T14:54:30.346Z,32.72
2023-03-18T14:55:32.381Z,32.75
2023-03-18T14:56:30.356Z,32.80
2023-03-18T14:57:30.398Z,32.87
2023-03-18T14:58:30.369Z,32.83
2023-03-18T14:59:30.372Z,32.72
2023-03-18T15:00:30.400Z,32.74
2023-03-18T15:01:30.504Z,32.47
2023-03-18T15:02:30.586Z,32.30
2023-03-18T15:03:30.406Z,32.28
2023-03-18T15:04:30.424Z,32.06
2023-03-18T15:05:30.590Z,31.94
2023-03-18T15:06:30.425Z,31.77
2023-03-18T15:07:30.429Z,31.58
2023-03-18T15:08:46.339Z,31.36
2023-03-18T15:09:30.444Z,31.36
2023-03-18T15:10:30.466Z,31.26
2023-03-18T15:11:30.443Z,31.04
2023-03-18T15:12:30.462Z,30.91
2023-03-18T15:13:30.450Z,30.81
2023-03-18T15:14:30.446Z,30.69
2023-03-18T15:15:30.681Z,30.45
2023-03-18T15:16:30.533Z,30.22
2023-03-18T15:17:30.461Z,30.19
2023-03-18T15:18:30.459Z,30.02
2023-03-18T15:19:30.475Z,29.89
2023-03-18T15:20:30.453Z,29.82
2023-03-18T15:21:30.489Z,29.70
2023-03-18T15:22:30.472Z,29.57
2023-03-18T15:23:30.488Z,29.54
2023-03-18T15:24:30.469Z,29.38
2023-03-18T15:25:30.750Z,29.28
2023-03-18T15:26:31.482Z,29.23
2023-03-18T15:27:30.500Z,29.05
2023-03-18T15:28:30.470Z,28.94
2023-03-18T15:29:30.480Z,28.95
2023-03-18T15:30:30.499Z,28.80
2023-03-18T15:31:30.503Z,28.80
2023-03-18T15:32:30.531Z,28.68
2023-03-18T15:33:30.528Z,28.61
2023-03-18T15:34:30.506Z,28.54
2023-03-18T15:35:30.723Z,28.41
2023-03-18T15:36:30.526Z,28.30
2023-03-18T15:37:30.504Z,28.24
2023-03-18T15:38:30.538Z,28.20
2023-03-18T15:39:30.522Z,28.18
2023-03-18T15:40:30.498Z,28.05
2023-03-18T15:41:30.498Z,28.02
2023-03-18T15:42:30.510Z,27.91
2023-03-18T15:43:30.529Z,27.90
2023-03-18T15:44:30.614Z,27.76
2023-03-18T15:45:30.636Z,27.69
2023-03-18T15:46:30.510Z,27.61
2023-03-18T15:47:30.537Z,27.49
2023-03-18T15:48:30.507Z,27.43
2023-03-18T15:49:30.536Z,27.43
2023-03-18T15:50:30.588Z,27.33
2023-03-18T15:51:30.562Z,27.15
2023-03-18T15:52:30.569Z,27.21
2023-03-18T15:53:30.515Z,27.06
2023-03-18T15:54:30.518Z,26.93
2023-03-18T15:55:30.604Z,26.87
2023-03-18T15:56:30.515Z,26.78
2023-03-18T15:57:30.549Z,26.71
2023-03-18T15:58:30.552Z,26.67
2023-03-18T15:59:30.511Z,26.60
2023-03-18T16:00:30.521Z,26.44
2023-03-18T16:12:38.265Z,25.59
2023-03-18T16:13:38.224Z,25.54
2023-03-18T16:14:38.201Z,25.45
2023-03-18T16:15:38.203Z,25.37
2023-03-18T16:16:38.318Z,25.34
2023-03-18T16:17:38.201Z,25.27
2023-03-18T16:18:38.192Z,25.15
2023-03-18T16:19:38.195Z,25.12
2023-03-18T16:20:38.189Z,25.02
2023-03-18T16:21:38.190Z,25.05
2023-03-18T16:22:38.174Z,24.96
2023-03-18T16:23:38.250Z,24.94
2023-03-18T16:24:38.186Z,24.85
2023-03-18T16:25:38.199Z,24.82
2023-03-18T16:26:38.196Z,24.71
2023-03-18T16:27:38.177Z,24.69
2023-03-18T16:28:38.188Z,24.63
2023-03-18T16:29:38.388Z,24.61
2023-03-18T16:30:38.166Z,24.45
2023-03-18T16:31:38.323Z,24.48
2023-03-18T16:32:38.185Z,24.46
2023-03-18T16:33:38.166Z,24.40
2023-03-18T16:34:38.178Z,24.40
2023-03-18T16:35:38.253Z,24.26
2023-03-18T16:36:38.187Z,24.24
2023-03-18T16:37:38.179Z,24.24
2023-03-18T16:38:38.147Z,24.19
2023-03-18T16:39:38.156Z,24.12
2023-03-18T16:40:38.155Z,24.07
2023-03-18T16:41:38.153Z,24.07
2023-03-18T16:42:38.282Z,23.99
2023-03-18T16:43:38.148Z,23.99
2023-03-18T16:44:38.204Z,23.94
2023-03-18T16:45:38.221Z,23.89
2023-03-18T16:46:38.150Z,23.87
2023-03-18T16:47:38.132Z,23.84
2023-03-18T16:48:38.164Z,23.79
2023-03-18T16:49:38.150Z,23.74
2023-03-18T16:50:38.142Z,23.70
2023-03-18T16:51:38.126Z,23.57
2023-03-18T16:52:38.124Z,23.59
2023-03-18T16:53:38.140Z,23.50
2023-03-18T16:54:38.118Z,23.59
2023-03-18T16:55:38.113Z,23.47
2023-03-18T16:56:38.123Z,23.45
2023-03-18T16:57:38.124Z,23.38
2023-03-18T16:58:38.137Z,23.42
2023-03-18T16:59:38.132Z,23.40
2023-03-18T17:00:38.174Z,23.34
2023-03-18T17:01:38.961Z,23.29
2023-03-18T17:02:38.119Z,23.21
2023-03-18T17:03:38.101Z,23.22
2023-03-18T17:04:38.244Z,23.18
2023-03-18T17:05:38.105Z,23.24
2023-03-18T17:06:38.088Z,23.10
2023-03-18T17:07:38.100Z,23.10
2023-03-18T17:08:38.097Z,23.07
2023-03-18T17:09:38.078Z,23.06
2023-03-18T17:10:38.083Z,23.06
2023-03-18T17:11:38.096Z,23.06
2023-03-18T17:12:38.074Z,22.99
2023-03-18T17:13:38.096Z,23.06
2023-03-18T17:14:38.063Z,23.00
2023-03-18T17:15:38.072Z,22.96
2023-03-18T17:16:38.188Z,22.89
2023-03-18T17:17:38.122Z,22.86
2023-03-18T17:18:38.077Z,22.79
2023-03-18T17:19:38.069Z,22.85
2023-03-18T17:20:38.072Z,22.82
2023-03-18T17:21:38.044Z,22.75